sensor_id;sensor_type;location;lat;lon;timestamp;pressure;altitude;pressure_sealevel;temperature;humidity
49841;BME280;35738;49.890;5.930;2023-07-13T00:00:47;96050.69;;;12.35;100.00
49841;BME280;35738;49.890;5.930;2023-07-13T00:03:14;96050.56;;;12.32;100.00
49841;BME280;35738;49.890;5.930;2023-07-13T00:05:41;96051.34;;;12.32;100.00
49841;BME280;35738;49.890;5.930;2023-07-13T00:08:08;96050.88;;;12.30;100.00
49841;BME280;35738;49.890;5.930;2023-07-13T00:10:39;96043.69;;;12.38;100.00
49841;BME280;35738;49.890;5.930;2023-07-13T00:13:07;96048.78;;;12.48;100.00
49841;BME280;35738;49.890;5.930;2023-07-13T00:15:35;96034.72;;;12.62;100.00
49841;BME280;35738;49.890;5.930;2023-07-13T00:18:02;96033.91;;;12.61;100.00
49841;BME280;35738;49.890;5.930;2023-07-13T00:20:29;96032.44;;;12.43;100.00
49841;BME280;35738;49.890;5.930;2023-07-13T00:22:55;96041.13;;;12.33;100.00
49841;BME280;35738;49.890;5.930;2023-07-13T00:25:23;96042.75;;;12.34;100.00
49841;BME280;35738;49.890;5.930;2023-07-13T00:27:51;96042.53;;;12.39;100.00
49841;BME280;35738;49.890;5.930;2023-07-13T00:30:18;96038.03;;;12.34;100.00
49841;BME280;35738;49.890;5.930;2023-07-13T00:32:45;96040.47;;;12.36;100.00
49841;BME280;35738;49.890;5.930;2023-07-13T00:35:14;96029.78;;;12.34;100.00
49841;BME280;35738;49.890;5.930;2023-07-13T00:37:41;96027.69;;;12.31;100.00
49841;BME280;35738;49.890;5.930;2023-07-13T00:40:11;96022.16;;;12.31;100.00
49841;BME280;35738;49.890;5.930;2023-07-13T00:42:37;96027.94;;;12.38;100.00
49841;BME280;35738;49.890;5.930;2023-07-13T00:47:34;96028.63;;;12.35;100.00
49841;BME280;35738;49.890;5.930;2023-07-13T00:50:01;96025.47;;;12.25;100.00
49841;BME280;35738;49.890;5.930;2023-07-13T00:52:29;96022.56;;;12.21;100.00
49841;BME280;35738;49.890;5.930;2023-07-13T00:54:55;96033.34;;;12.14;100.00
49841;BME280;35738;49.890;5.930;2023-07-13T00:57:23;96032.59;;;12.05;100.00
49841;BME280;35738;49.890;5.930;2023-07-13T00:59:54;96047.03;;;12.02;100.00
49841;BME280;35738;49.890;5.930;2023-07-13T01:02:22;96051.13;;;11.96;100.00
49841;BME280;35738;49.890;5.930;2023-07-13T01:04:49;96058.47;;;11.92;100.00
49841;BME280;35738;49.890;5.930;2023-07-13T01:07:16;96058.59;;;11.95;100.00
49841;BME280;35738;49.890;5.930;2023-07-13T01:09:44;96055.97;;;11.99;100.00
49841;BME280;35738;49.890;5.930;2023-07-13T01:12:11;96055.84;;;11.95;100.00
49841;BME280;35738;49.890;5.930;2023-07-13T01:14:40;96052.28;;;11.95;100.00
49841;BME280;35738;49.890;5.930;2023-07-13T01:17:10;96061.84;;;11.89;100.00
49841;BME280;35738;49.890;5.930;2023-07-13T01:19:44;96065.94;;;11.83;100.00
49841;BME280;35738;49.890;5.930;2023-07-13T01:22:13;96069.03;;;11.81;100.00
49841;BME280;35738;49.890;5.930;2023-07-13T01:24:42;96071.44;;;11.83;100.00
49841;BME280;35738;49.890;5.930;2023-07-13T01:27:11;96075.81;;;11.84;100.00
49841;BME280;35738;49.890;5.930;2023-07-13T01:29:40;96079.72;;;11.83;100.00
49841;BME280;35738;49.890;5.930;2023-07-13T01:32:13;96081.66;;;11.82;100.00
49841;BME280;35738;49.890;5.930;2023-07-13T01:34:40;96089.94;;;11.82;100.00
49841;BME280;35738;49.890;5.930;2023-07-13T01:37:10;96088.66;;;11.80;100.00
49841;BME280;35738;49.890;5.930;2023-07-13T01:39:37;96097.25;;;11.78;100.00
49841;BME280;35738;49.890;5.930;2023-07-13T01:42:05;96093.50;;;11.83;100.00
49841;BME280;35738;49.890;5.930;2023-07-13T01:44:32;96100.28;;;11.85;100.00
49841;BME280;35738;49.890;5.930;2023-07-13T01:46:58;96101.75;;;11.83;100.00
49841;BME280;35738;49.890;5.930;2023-07-13T01:49:25;96111.81;;;11.78;100.00
49841;BME280;35738;49.890;5.930;2023-07-13T01:51:52;96120.59;;;11.72;100.00
49841;BME280;35738;49.890;5.930;2023-07-13T01:54:19;96134.69;;;11.70;100.00
49841;BME280;35738;49.890;5.930;2023-07-13T01:56:46;96137.28;;;11.67;100.00
49841;BME280;35738;49.890;5.930;2023-07-13T01:59:12;96127.41;;;11.66;100.00
49841;BME280;35738;49.890;5.930;2023-07-13T02:01:39;96136.19;;;11.59;100.00
49841;BME280;35738;49.890;5.930;2023-07-13T02:04:06;96153.38;;;11.56;100.00
49841;BME280;35738;49.890;5.930;2023-07-13T02:06:32;96145.91;;;11.57;100.00
49841;BME280;35738;49.890;5.930;2023-07-13T02:08:59;96158.88;;;11.56;100.00
49841;BME280;35738;49.890;5.930;2023-07-13T02:11:26;96152.56;;;11.56;100.00
49841;BME280;35738;49.890;5.930;2023-07-13T02:14:02;96165.19;;;11.57;100.00
49841;BME280;35738;49.890;5.930;2023-07-13T02:16:30;96176.88;;;11.54;100.00
49841;BME280;35738;49.890;5.930;2023-07-13T02:18:57;96180.28;;;11.51;100.00
49841;BME280;35738;49.890;5.930;2023-07-13T02:21:24;96183.69;;;11.48;100.00
49841;BME280;35738;49.890;5.930;2023-07-13T02:23:50;96185.34;;;11.40;100.00
49841;BME280;35738;49.890;5.930;2023-07-13T02:26:17;96196.38;;;11.31;100.00
49841;BME280;35738;49.890;5.930;2023-07-13T02:28:44;96197.81;;;11.29;100.00
49841;BME280;35738;49.890;5.930;2023-07-13T02:31:13;96215.47;;;11.28;100.00
49841;BME280;35738;49.890;5.930;2023-07-13T02:33:40;96218.56;;;11.26;100.00
49841;BME280;35738;49.890;5.930;2023-07-13T02:36:07;96232.00;;;11.28;100.00
49841;BME280;35738;49.890;5.930;2023-07-13T02:38:34;96236.53;;;11.24;100.00
49841;BME280;35738;49.890;5.930;2023-07-13T02:41:03;96233.47;;;11.25;100.00
49841;BME280;35738;49.890;5.930;2023-07-13T02:43:30;96238.16;;;11.25;100.00
49841;BME280;35738;49.890;5.930;2023-07-13T02:45:56;96240.44;;;11.23;100.00
49841;BME280;35738;49.890;5.930;2023-07-13T02:48:27;96248.84;;;11.18;100.00
49841;BME280;35738;49.890;5.930;2023-07-13T02:50:53;96245.09;;;11.13;100.00
49841;BME280;35738;49.890;5.930;2023-07-13T02:53:20;96243.31;;;11.00;100.00
49841;BME280;35738;49.890;5.930;2023-07-13T02:55:46;96252.72;;;10.99;100.00
49841;BME280;35738;49.890;5.930;2023-07-13T02:58:13;96249.31;;;10.94;100.00
49841;BME280;35738;49.890;5.930;2023-07-13T03:00:44;96267.44;;;10.86;100.00
49841;BME280;35738;49.890;5.930;2023-07-13T03:03:13;96274.69;;;10.82;100.00
49841;BME280;35738;49.890;5.930;2023-07-13T03:05:43;96283.13;;;10.86;100.00
49841;BME280;35738;49.890;5.930;2023-07-13T03:08:11;96273.09;;;10.81;100.00
49841;BME280;35738;49.890;5.930;2023-07-13T03:10:38;96277.28;;;10.78;100.00
49841;BME280;35738;49.890;5.930;2023-07-13T03:13:06;96284.09;;;10.81;100.00
49841;BME280;35738;49.890;5.930;2023-07-13T03:15:32;96291.69;;;10.84;100.00
49841;BME280;35738;49.890;5.930;2023-07-13T03:17:59;96292.97;;;10.69;100.00
49841;BME280;35738;49.890;5.930;2023-07-13T03:20:26;96293.72;;;10.53;100.00
49841;BME280;35738;49.890;5.930;2023-07-13T03:22:53;96304.25;;;10.50;100.00
49841;BME280;35738;49.890;5.930;2023-07-13T03:25:19;96307.97;;;10.55;100.00
49841;BME280;35738;49.890;5.930;2023-07-13T03:27:46;96315.72;;;10.53;100.00
49841;BME280;35738;49.890;5.930;2023-07-13T03:30:12;96321.50;;;10.42;100.00
49841;BME280;35738;49.890;5.930;2023-07-13T03:32:39;96330.66;;;10.29;100.00
49841;BME280;35738;49.890;5.930;2023-07-13T03:35:06;96339.84;;;10.25;100.00
49841;BME280;35738;49.890;5.930;2023-07-13T03:37:32;96341.22;;;10.13;100.00
49841;BME280;35738;49.890;5.930;2023-07-13T03:39:59;96350.41;;;10.09;100.00
49841;BME280;35738;49.890;5.930;2023-07-13T03:42:25;96361.25;;;10.14;100.00
49841;BME280;35738;49.890;5.930;2023-07-13T03:44:52;96368.28;;;10.20;100.00
49841;BME280;35738;49.890;5.930;2023-07-13T03:47:19;96373.78;;;10.20;100.00
49841;BME280;35738;49.890;5.930;2023-07-13T03:49:45;96377.75;;;10.36;100.00
49841;BME280;35738;49.890;5.930;2023-07-13T03:52:12;96379.75;;;10.44;100.00
49841;BME280;35738;49.890;5.930;2023-07-13T03:54:39;96381.56;;;10.49;100.00
49841;BME280;35738;49.890;5.930;2023-07-13T03:57:06;96388.69;;;10.50;100.00
49841;BME280;35738;49.890;5.930;2023-07-13T03:59:33;96374.13;;;10.49;100.00
49841;BME280;35738;49.890;5.930;2023-07-13T04:02:01;96383.03;;;10.55;100.00
49841;BME280;35738;49.890;5.930;2023-07-13T04:04:28;96384.34;;;10.58;100.00
49841;BME280;35738;49.890;5.930;2023-07-13T04:06:54;96385.63;;;10.52;100.00
49841;BME280;35738;49.890;5.930;2023-07-13T04:09:21;96390.47;;;10.55;100.00
49841;BME280;35738;49.890;5.930;2023-07-13T04:11:48;96387.59;;;10.60;100.00
49841;BME280;35738;49.890;5.930;2023-07-13T04:14:14;96396.81;;;10.64;100.00
49841;BME280;35738;49.890;5.930;2023-07-13T04:16:44;96402.81;;;10.66;100.00
49841;BME280;35738;49.890;5.930;2023-07-13T04:19:12;96400.06;;;10.66;100.00
49841;BME280;35738;49.890;5.930;2023-07-13T04:21:39;96396.19;;;10.67;100.00
49841;BME280;35738;49.890;5.930;2023-07-13T04:24:06;96401.88;;;10.70;100.00
49841;BME280;35738;49.890;5.930;2023-07-13T04:26:34;96402.81;;;10.66;100.00
49841;BME280;35738;49.890;5.930;2023-07-13T04:29:02;96401.47;;;10.55;100.00
49841;BME280;35738;49.890;5.930;2023-07-13T04:31:31;96399.09;;;10.39;100.00
49841;BME280;35738;49.890;5.930;2023-07-13T04:33:58;96410.75;;;10.36;100.00
49841;BME280;35738;49.890;5.930;2023-07-13T04:36:26;96411.38;;;10.33;100.00
49841;BME280;35738;49.890;5.930;2023-07-13T04:38:55;96422.31;;;10.47;100.00
49841;BME280;35738;49.890;5.930;2023-07-13T04:41:22;96426.06;;;10.51;100.00
49841;BME280;35738;49.890;5.930;2023-07-13T04:43:49;96435.75;;;10.48;100.00
49841;BME280;35738;49.890;5.930;2023-07-13T04:46:17;96437.38;;;10.49;100.00
49841;BME280;35738;49.890;5.930;2023-07-13T04:48:45;96449.03;;;10.55;100.00
49841;BME280;35738;49.890;5.930;2023-07-13T04:51:12;96443.59;;;10.64;100.00
49841;BME280;35738;49.890;5.930;2023-07-13T04:53:39;96456.75;;;10.75;100.00
49841;BME280;35738;49.890;5.930;2023-07-13T04:56:05;96455.66;;;10.85;100.00
49841;BME280;35738;49.890;5.930;2023-07-13T04:58:33;96462.03;;;11.03;100.00
49841;BME280;35738;49.890;5.930;2023-07-13T05:01:05;96472.19;;;11.25;100.00
49841;BME280;35738;49.890;5.930;2023-07-13T05:03:33;96479.69;;;11.41;100.00
49841;BME280;35738;49.890;5.930;2023-07-13T05:06:05;96479.41;;;11.60;100.00
49841;BME280;35738;49.890;5.930;2023-07-13T05:08:32;96474.06;;;11.72;100.00
49841;BME280;35738;49.890;5.930;2023-07-13T05:11:00;96467.47;;;11.82;100.00
49841;BME280;35738;49.890;5.930;2023-07-13T05:13:28;96457.75;;;11.85;100.00
49841;BME280;35738;49.890;5.930;2023-07-13T05:16:03;96460.84;;;12.00;100.00
49841;BME280;35738;49.890;5.930;2023-07-13T05:18:30;96455.03;;;12.02;100.00
49841;BME280;35738;49.890;5.930;2023-07-13T05:23:25;96445.28;;;12.13;100.00
49841;BME280;35738;49.890;5.930;2023-07-13T05:25:52;96443.47;;;12.34;100.00
49841;BME280;35738;49.890;5.930;2023-07-13T05:28:21;96430.41;;;12.78;100.00
49841;BME280;35738;49.890;5.930;2023-07-13T05:30:49;96400.41;;;13.06;100.00
49841;BME280;35738;49.890;5.930;2023-07-13T05:33:16;96386.66;;;13.56;100.00
49841;BME280;35738;49.890;5.930;2023-07-13T05:35:43;96356.69;;;14.00;100.00
49841;BME280;35738;49.890;5.930;2023-07-13T05:38:09;96342.72;;;14.50;100.00
49841;BME280;35738;49.890;5.930;2023-07-13T05:40:37;96293.50;;;14.68;100.00
49841;BME280;35738;49.890;5.930;2023-07-13T05:43:04;96287.41;;;14.17;100.00
49841;BME280;35738;49.890;5.930;2023-07-13T05:45:30;96299.66;;;14.28;100.00
49841;BME280;35738;49.890;5.930;2023-07-13T05:47:57;96275.50;;;14.86;100.00
49841;BME280;35738;49.890;5.930;2023-07-13T05:50:26;96247.88;;;15.54;100.00
49841;BME280;35738;49.890;5.930;2023-07-13T05:52:52;96216.81;;;15.89;100.00
49841;BME280;35738;49.890;5.930;2023-07-13T05:55:20;96217.34;;;14.99;100.00
49841;BME280;35738;49.890;5.930;2023-07-13T05:57:46;96240.03;;;14.31;100.00
49841;BME280;35738;49.890;5.930;2023-07-13T06:00:19;96269.81;;;14.01;100.00
49841;BME280;35738;49.890;5.930;2023-07-13T06:02:46;96294.97;;;13.75;100.00
49841;BME280;35738;49.890;5.930;2023-07-13T06:05:13;96323.66;;;13.50;100.00
49841;BME280;35738;49.890;5.930;2023-07-13T06:07:40;96342.38;;;13.44;100.00
49841;BME280;35738;49.890;5.930;2023-07-13T06:10:07;96355.19;;;13.49;100.00
49841;BME280;35738;49.890;5.930;2023-07-13T06:12:33;96364.75;;;13.51;100.00
49841;BME280;35738;49.890;5.930;2023-07-13T06:15:00;96362.41;;;13.41;100.00
49841;BME280;35738;49.890;5.930;2023-07-13T06:17:27;96375.69;;;13.48;100.00
49841;BME280;35738;49.890;5.930;2023-07-13T06:19:53;96382.41;;;13.80;100.00
49841;BME280;35738;49.890;5.930;2023-07-13T06:22:20;96373.91;;;13.85;100.00
49841;BME280;35738;49.890;5.930;2023-07-13T06:24:47;96375.19;;;13.87;100.00
49841;BME280;35738;49.890;5.930;2023-07-13T06:27:13;96357.28;;;13.73;100.00
49841;BME280;35738;49.890;5.930;2023-07-13T06:29:40;96359.69;;;13.74;100.00
49841;BME280;35738;49.890;5.930;2023-07-13T06:32:07;96365.09;;;13.71;100.00
49841;BME280;35738;49.890;5.930;2023-07-13T06:34:34;96357.66;;;13.83;100.00
49841;BME280;35738;49.890;5.930;2023-07-13T06:37:00;96347.38;;;14.05;100.00
49841;BME280;35738;49.890;5.930;2023-07-13T06:39:27;96345.44;;;14.05;100.00
49841;BME280;35738;49.890;5.930;2023-07-13T06:41:54;96326.59;;;14.19;100.00
49841;BME280;35738;49.890;5.930;2023-07-13T06:44:20;96336.03;;;14.18;100.00
49841;BME280;35738;49.890;5.930;2023-07-13T06:46:47;96330.06;;;13.95;100.00
49841;BME280;35738;49.890;5.930;2023-07-13T06:49:13;96332.88;;;14.08;100.00
49841;BME280;35738;49.890;5.930;2023-07-13T06:51:42;96330.06;;;14.86;100.00
49841;BME280;35738;49.890;5.930;2023-07-13T06:54:09;96288.75;;;15.17;100.00
49841;BME280;35738;49.890;5.930;2023-07-13T06:56:35;96271.50;;;16.04;100.00
49841;BME280;35738;49.890;5.930;2023-07-13T06:59:02;96223.38;;;16.12;100.00
49841;BME280;35738;49.890;5.930;2023-07-13T07:01:29;96208.84;;;15.60;100.00
49841;BME280;35738;49.890;5.930;2023-07-13T07:04:02;96224.88;;;15.26;100.00
49841;BME280;35738;49.890;5.930;2023-07-13T07:06:32;96240.69;;;15.25;100.00
49841;BME280;35738;49.890;5.930;2023-07-13T07:09:01;96230.72;;;15.37;100.00
49841;BME280;35738;49.890;5.930;2023-07-13T07:11:30;96226.16;;;15.69;100.00
49841;BME280;35738;49.890;5.930;2023-07-13T07:13:57;96204.50;;;16.49;100.00
49841;BME280;35738;49.890;5.930;2023-07-13T07:16:27;96182.94;;;16.43;100.00
49841;BME280;35738;49.890;5.930;2023-07-13T07:18:57;96171.34;;;17.07;100.00
49841;BME280;35738;49.890;5.930;2023-07-13T07:21:27;96138.69;;;16.85;100.00
49841;BME280;35738;49.890;5.930;2023-07-13T07:23:59;96142.59;;;16.65;100.00
49841;BME280;35738;49.890;5.930;2023-07-13T07:26:31;96163.03;;;16.09;100.00
49841;BME280;35738;49.890;5.930;2023-07-13T07:29:13;96175.34;;;15.65;100.00
49841;BME280;35738;49.890;5.930;2023-07-13T07:31:42;96193.69;;;15.29;100.00
49841;BME280;35738;49.890;5.930;2023-07-13T07:34:15;96211.47;;;16.12;100.00
49841;BME280;35738;49.890;5.930;2023-07-13T07:36:44;96186.50;;;16.12;100.00
49841;BME280;35738;49.890;5.930;2023-07-13T07:39:14;96204.88;;;15.73;100.00
49841;BME280;35738;49.890;5.930;2023-07-13T07:41:40;96196.00;;;15.67;100.00
49841;BME280;35738;49.890;5.930;2023-07-13T07:44:22;96191.69;;;16.13;100.00
49841;BME280;35738;49.890;5.930;2023-07-13T07:46:49;96185.94;;;16.22;100.00
49841;BME280;35738;49.890;5.930;2023-07-13T07:49:19;96196.06;;;16.62;100.00
49841;BME280;35738;49.890;5.930;2023-07-13T07:51:46;96185.59;;;16.55;100.00
49841;BME280;35738;49.890;5.930;2023-07-13T07:54:19;96176.03;;;16.68;100.00
49841;BME280;35738;49.890;5.930;2023-07-13T07:57:06;96166.16;;;16.71;100.00
49841;BME280;35738;49.890;5.930;2023-07-13T07:59:36;96161.06;;;16.57;100.00
49841;BME280;35738;49.890;5.930;2023-07-13T08:02:09;96163.78;;;16.38;100.00
49841;BME280;35738;49.890;5.930;2023-07-13T08:04:57;96169.66;;;16.52;100.00
49841;BME280;35738;49.890;5.930;2023-07-13T08:07:32;96157.31;;;16.18;100.00
49841;BME280;35738;49.890;5.930;2023-07-13T08:10:01;96149.44;;;16.36;100.00
49841;BME280;35738;49.890;5.930;2023-07-13T08:12:34;96138.75;;;16.53;100.00
49841;BME280;35738;49.890;5.930;2023-07-13T08:15:05;96128.41;;;16.03;100.00
49841;BME280;35738;49.890;5.930;2023-07-13T08:17:31;96137.72;;;15.95;100.00
49841;BME280;35738;49.890;5.930;2023-07-13T08:19:58;96135.38;;;16.29;100.00
49841;BME280;35738;49.890;5.930;2023-07-13T08:22:25;96122.28;;;16.29;100.00
49841;BME280;35738;49.890;5.930;2023-07-13T08:24:51;96127.16;;;16.16;100.00
49841;BME280;35738;49.890;5.930;2023-07-13T08:27:27;96143.16;;;16.39;100.00
49841;BME280;35738;49.890;5.930;2023-07-13T08:29:56;96126.69;;;16.46;100.00
49841;BME280;35738;49.890;5.930;2023-07-13T08:32:26;96107.97;;;16.27;100.00
49841;BME280;35738;49.890;5.930;2023-07-13T08:34:52;96097.69;;;16.43;100.00
49841;BME280;35738;49.890;5.930;2023-07-13T08:37:19;96090.59;;;16.46;100.00
49841;BME280;35738;49.890;5.930;2023-07-13T08:39:50;96088.63;;;16.31;100.00
49841;BME280;35738;49.890;5.930;2023-07-13T08:48:14;96090.09;;;16.75;100.00
49841;BME280;35738;49.890;5.930;2023-07-13T08:50:50;96081.31;;;16.93;100.00
49841;BME280;35738;49.890;5.930;2023-07-13T08:53:37;96081.75;;;16.75;100.00
49841;BME280;35738;49.890;5.930;2023-07-13T08:56:11;96083.06;;;16.81;100.00
49841;BME280;35738;49.890;5.930;2023-07-13T08:58:40;96081.75;;;16.75;100.00
49841;BME280;35738;49.890;5.930;2023-07-13T09:01:19;96089.06;;;16.83;100.00
49841;BME280;35738;49.890;5.930;2023-07-13T09:04:22;96078.03;;;17.68;100.00
49841;BME280;35738;49.890;5.930;2023-07-13T09:09:45;96059.63;;;17.18;100.00
49841;BME280;35738;49.890;5.930;2023-07-13T09:14:57;96055.72;;;17.03;100.00
49841;BME280;35738;49.890;5.930;2023-07-13T09:17:33;96054.19;;;17.05;100.00
49841;BME280;35738;49.890;5.930;2023-07-13T09:20:42;96051.28;;;17.18;100.00
49841;BME280;35738;49.890;5.930;2023-07-13T09:23:14;96037.94;;;17.69;100.00
49841;BME280;35738;49.890;5.930;2023-07-13T09:25:49;96031.88;;;17.02;100.00
49841;BME280;35738;49.890;5.930;2023-07-13T09:28:26;96033.94;;;17.24;100.00
49841;BME280;35738;49.890;5.930;2023-07-13T09:31:03;96019.50;;;17.61;100.00
49841;BME280;35738;49.890;5.930;2023-07-13T09:33:32;96025.47;;;16.98;100.00
49841;BME280;35738;49.890;5.930;2023-07-13T09:36:03;96031.53;;;17.23;100.00
49841;BME280;35738;49.890;5.930;2023-07-13T09:38:45;96012.56;;;17.28;100.00
49841;BME280;35738;49.890;5.930;2023-07-13T09:44:16;96022.81;;;17.24;100.00
49841;BME280;35738;49.890;5.930;2023-07-13T09:46:46;96025.84;;;17.61;100.00
49841;BME280;35738;49.890;5.930;2023-07-13T09:49:13;96011.69;;;18.16;100.00
49841;BME280;35738;49.890;5.930;2023-07-13T09:51:43;96003.09;;;18.58;100.00
49841;BME280;35738;49.890;5.930;2023-07-13T09:54:19;95999.13;;;18.85;100.00
49841;BME280;35738;49.890;5.930;2023-07-13T09:56:46;96005.38;;;19.09;100.00
49841;BME280;35738;49.890;5.930;2023-07-13T09:59:21;96004.09;;;18.42;100.00
49841;BME280;35738;49.890;5.930;2023-07-13T10:01:53;95999.84;;;18.22;100.00
49841;BME280;35738;49.890;5.930;2023-07-13T10:04:27;96009.53;;;18.05;100.00
49841;BME280;35738;49.890;5.930;2023-07-13T10:07:08;96020.94;;;17.74;100.00
49841;BME280;35738;49.890;5.930;2023-07-13T10:09:59;96025.66;;;17.51;100.00
49841;BME280;35738;49.890;5.930;2023-07-13T10:12:30;96017.88;;;17.37;100.00
49841;BME280;35738;49.890;5.930;2023-07-13T10:15:02;96015.78;;;17.76;100.00
49841;BME280;35738;49.890;5.930;2023-07-13T10:17:50;96013.94;;;18.06;100.00
49841;BME280;35738;49.890;5.930;2023-07-13T10:20:20;96012.00;;;17.65;100.00
49841;BME280;35738;49.890;5.930;2023-07-13T10:22:54;96016.34;;;18.08;100.00
49841;BME280;35738;49.890;5.930;2023-07-13T10:25:30;96008.22;;;18.79;100.00
49841;BME280;35738;49.890;5.930;2023-07-13T10:31:18;96001.97;;;18.89;100.00
49841;BME280;35738;49.890;5.930;2023-07-13T10:33:46;95980.16;;;18.38;100.00
49841;BME280;35738;49.890;5.930;2023-07-13T10:36:23;96000.00;;;18.93;100.00
49841;BME280;35738;49.890;5.930;2023-07-13T10:38:55;96002.63;;;19.12;100.00
49841;BME280;35738;49.890;5.930;2023-07-13T10:41:25;96015.75;;;19.12;100.00
49841;BME280;35738;49.890;5.930;2023-07-13T10:43:55;96006.34;;;18.90;100.00
49841;BME280;35738;49.890;5.930;2023-07-13T10:46:25;95999.84;;;19.49;100.00
49841;BME280;35738;49.890;5.930;2023-07-13T10:49:05;96002.25;;;19.51;100.00
49841;BME280;35738;49.890;5.930;2023-07-13T10:51:33;95999.25;;;18.96;100.00
49841;BME280;35738;49.890;5.930;2023-07-13T10:54:18;96005.66;;;19.00;100.00
49841;BME280;35738;49.890;5.930;2023-07-13T10:56:48;96006.00;;;19.32;100.00
49841;BME280;35738;49.890;5.930;2023-07-13T10:59:25;95998.28;;;19.99;100.00
49841;BME280;35738;49.890;5.930;2023-07-13T11:02:10;95999.25;;;19.70;100.00
49841;BME280;35738;49.890;5.930;2023-07-13T11:04:46;96010.44;;;18.99;100.00
49841;BME280;35738;49.890;5.930;2023-07-13T11:07:29;96005.69;;;18.43;100.00
49841;BME280;35738;49.890;5.930;2023-07-13T11:09:58;96013.69;;;18.45;100.00
49841;BME280;35738;49.890;5.930;2023-07-13T11:12:48;96022.25;;;18.59;100.00
49841;BME280;35738;49.890;5.930;2023-07-13T11:15:28;96022.38;;;18.66;100.00
49841;BME280;35738;49.890;5.930;2023-07-13T11:17:56;96021.72;;;18.50;100.00
49841;BME280;35738;49.890;5.930;2023-07-13T11:20:33;96002.13;;;18.43;100.00
49841;BME280;35738;49.890;5.930;2023-07-13T11:25:39;96014.63;;;18.56;100.00
49841;BME280;35738;49.890;5.930;2023-07-13T11:30:59;96013.31;;;18.73;100.00
49841;BME280;35738;49.890;5.930;2023-07-13T11:36:13;96015.94;;;18.36;100.00
49841;BME280;35738;49.890;5.930;2023-07-13T11:38:42;96018.34;;;18.37;100.00
49841;BME280;35738;49.890;5.930;2023-07-13T11:41:20;96022.91;;;18.76;100.00
49841;BME280;35738;49.890;5.930;2023-07-13T11:43:53;96014.28;;;18.88;100.00
49841;BME280;35738;49.890;5.930;2023-07-13T11:46:21;96009.00;;;19.13;100.00
49841;BME280;35738;49.890;5.930;2023-07-13T11:48:50;96011.47;;;19.21;100.00
49841;BME280;35738;49.890;5.930;2023-07-13T11:51:25;96015.50;;;18.90;100.00
49841;BME280;35738;49.890;5.930;2023-07-13T11:53:54;96006.69;;;18.85;100.00
49841;BME280;35738;49.890;5.930;2023-07-13T11:56:24;96026.63;;;19.24;100.00
49841;BME280;35738;49.890;5.930;2023-07-13T11:58:54;96021.25;;;19.38;100.00
49841;BME280;35738;49.890;5.930;2023-07-13T12:01:27;96014.66;;;19.20;100.00
49841;BME280;35738;49.890;5.930;2023-07-13T12:04:01;96008.88;;;19.35;100.00
49841;BME280;35738;49.890;5.930;2023-07-13T12:06:32;96006.16;;;19.43;100.00
49841;BME280;35738;49.890;5.930;2023-07-13T12:09:13;96016.88;;;20.29;100.00
49841;BME280;35738;49.890;5.930;2023-07-13T12:11:43;96012.06;;;19.78;100.00
49841;BME280;35738;49.890;5.930;2023-07-13T12:14:17;96009.69;;;19.40;100.00
49841;BME280;35738;49.890;5.930;2023-07-13T12:16:45;96004.41;;;19.68;100.00
49841;BME280;35738;49.890;5.930;2023-07-13T12:19:26;96002.25;;;19.51;100.00
49841;BME280;35738;49.890;5.930;2023-07-13T12:21:56;96011.75;;;19.46;100.00
49841;BME280;35738;49.890;5.930;2023-07-13T12:24:28;96010.19;;;19.12;100.00
49841;BME280;35738;49.890;5.930;2023-07-13T12:27:00;96011.81;;;19.16;100.00
49841;BME280;35738;49.890;5.930;2023-07-13T12:29:27;96011.72;;;19.83;100.00
49841;BME280;35738;49.890;5.930;2023-07-13T12:31:54;96016.69;;;19.60;100.00
49841;BME280;35738;49.890;5.930;2023-07-13T12:34:25;96010.16;;;19.45;100.00
49841;BME280;35738;49.890;5.930;2023-07-13T12:36:54;96012.03;;;19.00;100.00
49841;BME280;35738;49.890;5.930;2023-07-13T12:39:26;96019.59;;;19.00;100.00
49841;BME280;35738;49.890;5.930;2023-07-13T12:44:48;96028.13;;;19.14;100.00
49841;BME280;35738;49.890;5.930;2023-07-13T12:47:15;96004.88;;;18.99;100.00
49841;BME280;35738;49.890;5.930;2023-07-13T12:49:48;96004.47;;;19.01;100.00
49841;BME280;35738;49.890;5.930;2023-07-13T12:52:20;96020.69;;;19.25;100.00
49841;BME280;35738;49.890;5.930;2023-07-13T12:55:03;96027.88;;;19.60;100.00
49841;BME280;35738;49.890;5.930;2023-07-13T12:57:38;96023.59;;;19.73;100.00
49841;BME280;35738;49.890;5.930;2023-07-13T13:00:21;96012.97;;;19.89;100.00
49841;BME280;35738;49.890;5.930;2023-07-13T13:02:53;96019.38;;;19.93;100.00
49841;BME280;35738;49.890;5.930;2023-07-13T13:05:45;96012.59;;;19.50;100.00
49841;BME280;35738;49.890;5.930;2023-07-13T13:08:14;96021.50;;;19.63;100.00
49841;BME280;35738;49.890;5.930;2023-07-13T13:10:42;96016.59;;;19.93;100.00
49841;BME280;35738;49.890;5.930;2023-07-13T13:13:08;96019.38;;;19.93;100.00
49841;BME280;35738;49.890;5.930;2023-07-13T13:15:35;96016.66;;;20.04;100.00
49841;BME280;35738;49.890;5.930;2023-07-13T13:18:10;96022.63;;;20.03;100.00
49841;BME280;35738;49.890;5.930;2023-07-13T13:20:40;96012.34;;;20.07;100.00
49841;BME280;35738;49.890;5.930;2023-07-13T13:23:15;96012.44;;;20.21;100.00
49841;BME280;35738;49.890;5.930;2023-07-13T13:25:51;96005.66;;;19.74;100.00
49841;BME280;35738;49.890;5.930;2023-07-13T13:28:20;96005.78;;;19.88;100.00
49841;BME280;35738;49.890;5.930;2023-07-13T13:30:49;96014.00;;;20.18;100.00
49841;BME280;35738;49.890;5.930;2023-07-13T13:33:19;96002.69;;;20.00;100.00
49841;BME280;35738;49.890;5.930;2023-07-13T13:35:49;96009.44;;;19.96;100.00
49841;BME280;35738;49.890;5.930;2023-07-13T13:38:20;96001.97;;;19.63;100.00